Terminal Aerodrome Forecast
Issued by NWS

Home | Current Version | Previous Version | Text Only | Print | Product List | Glossary On
Versions: 1 2 3 4 5 6 7 8 9 10 11 12 13 14 15 16 17 18 19 20 21 22 23
000
FTUS43 KGRB 300520
TAFCWA
TAF
KCWA 300520Z 3006/0106 32004KT 5SM BR SCT015
      TEMPO 3006/3010 1 1/2SM BR BKN012
     FM301000 33007KT P6SM BKN012
      TEMPO 3010/3013 BKN006
     FM301500 35009KT P6SM SCT015 BKN025
     FM301800 35010KT P6SM BKN035
     FM302200 36006KT P6SM SKC
      AMD NOT SKED=

USA.gov is the U.S. government's official web portal to all federal, state and local government web resources and services.